Terminal Aerodrome Forecast
Issued by NWS

Home | Current Version | Previous Version | Text Only | Print | Product List | Glossary On
Versions: 1 2 3 4 5 6 7 8 9 10 11 12 13 14
000
FTUS42 KTBW 311700
TAFPIE
TAF
KPIE 311721Z 3118/0118 08008KT P6SM SCT250
     FM010300 10009KT P6SM SCT250
     FM011400 14012G18KT P6SM SCT035 SCT250=

USA.gov is the U.S. government's official web portal to all federal, state and local government web resources and services.